Accueil
METAR-TAF:

METAR-TAF

Aéroports :

Novare, Italie

Base aérienne Cameri

latitude: 45-31N, longitude: 008-40E, altitude: 178 m

Observation

Le bulletin a été fait il y a 9 heures et 23 minutes, à 17:55 UTC
Vent 2 kt de direction variable
Température 15°C
Humidité 82%
Pression 1017 hPa
Visibilité: 2000 m
brume

METAR: LIMN 181755Z VRB02KT 2000 BR NSC 15/12 Q1017

Heure: 05:18 (03:18 UTC)

Prévision

Le bulletin a été fait il y a 10 heures et 18 minutes, à 17:00 UTC
Prévision valable du 18 à 18 UTC au 19 à 03 UTC
Vent 3 kt de direction variable
Visibilité: 1500 m
brume
Temporairement
du 18 à 20 UTC au 19 à 03 UTC
Visibilité: 0500 m
Nuages fragmentés à une hauteur de 200 ft
brouillard

TAF: LIMN 181700Z 1818/1903 VRB03KT 1500 BR NSC TEMPO 1820/1903 0500 FG BKN002

Observations et prévisions météorologiques de plus de 4000 aéroports (messages METAR et TAF).

Les stations disponibles sont représentées par des disques jaunes et rouges sur la carte.

Passer la souris dessus pour voir le nom de la station.

Cliquer dessus pour voir les observations et prévisions météorologiques.

Pour changer de carte: cliquez sur les boutons verts avec une croix noire pour zoomer, sur le bouton vert avec un tiret pour effectuer un zoom arrière, ou sur les flèches vertes pour les cartes adjacentes.


METAR-TAF: